Decoded Metar for LFOH (LE HAVRE in FRANCE) (IATA:LEH) | Meteo·Mobile Aviation Weather
aviador You're here:

LFOH Decoded Metar

LE HAVRE in FRANCE
Report Time2019-02-17 20:30:00
UTC Time2019-02-17 20:51:38
Flight Rules vfr VFR
Wind170° at 06 kt
W.Decomp.*RWY 22: 3.9 kt HW 4.5 kt LCW
W.Rank170° ranks 20
Current wind is below 170° avg. (8.1)
Visibility9999 m
Phenomena:N/A
Clouds:N/A
Expected CloudBase > 2,400 ft AGL from Temp-Dew spread
CeilingNone
Temp11°C (ISA -3)
Dew Point05°C (67% RH)
AAT7.7°C
QNH1018 hPa
Density Alt-108 ft
Elevation338 ft
Report Wrong Elevation
Raw Report
METAR LFOH 172030Z AUTO 17006KT 9999 // NSC 11/05 Q1018=

Extra information for LFOH:More info

Metar Taf Metar & Taf Last 4 Metars F.Rules Stats Wind Profile Meteogram Temp Stats Airport Information Weather charts Add Link Nearby VenuesMetar ALERT Operation Metar Decoded Social comments